DLH5PL EDDF-EPKK
Flight info
| Callsign | DLH5PL |
|---|---|
| Flight time | N/A |
| Altitude | 35000 |
| Route | SULUS4D/07C SULUS L984 OKG DCT PADKA |
| Aircraft | A319/M-SADE2E3FGIJ1LORWXYZ/HB1 |
Departure
| Time | 2026-04-14 16:52 |
|---|---|
| Airport | Frankfurt Main Airport (EDDF) |
Arrival
| Time | N/A |
|---|---|
| Airport | Kraków John Paul II International Airport (EPKK) |
| Time | Latitude | Longitude | Altitude | Speed | Heading |
|---|---|---|---|---|---|
| 2026-04-14 16:38 | 50.04866 | 8.58892 | 364 ft | 0 kts | 340° |
| 2026-04-14 16:39 | 50.04861 | 8.58895 | 364 ft | 2 kts | 340° |
| 2026-04-14 16:40 | 50.04843 | 8.58905 | 365 ft | 3 kts | 340° |
| 2026-04-14 16:40 | 50.04826 | 8.58915 | 366 ft | 3 kts | 340° |
| 2026-04-14 16:40 | 50.04807 | 8.58926 | 367 ft | 3 kts | 340° |
| 2026-04-14 16:40 | 50.04788 | 8.58937 | 367 ft | 2 kts | 340° |
| 2026-04-14 16:41 | 50.04781 | 8.58940 | 368 ft | 0 kts | 340° |
| 2026-04-14 16:44 | 50.04783 | 8.58940 | 368 ft | 0 kts | 340° |
| 2026-04-14 16:44 | 50.04783 | 8.58939 | 368 ft | 1 kts | 336° |
| 2026-04-14 16:44 | 50.04783 | 8.58930 | 368 ft | 0 kts | 271° |
| 2026-04-14 16:45 | 50.04772 | 8.58906 | 372 ft | 4 kts | 237° |
| 2026-04-14 16:45 | 50.04747 | 8.58855 | 368 ft | 8 kts | 238° |
| 2026-04-14 16:45 | 50.04730 | 8.58789 | 369 ft | 6 kts | 250° |
| 2026-04-14 16:45 | 50.04720 | 8.58748 | 369 ft | 6 kts | 249° |
| 2026-04-14 16:46 | 50.04695 | 8.58657 | 371 ft | 7 kts | 246° |
| 2026-04-14 16:46 | 50.04681 | 8.58606 | 369 ft | 8 kts | 250° |
| 2026-04-14 16:46 | 50.04661 | 8.58518 | 372 ft | 9 kts | 249° |
| 2026-04-14 16:46 | 50.04638 | 8.58424 | 371 ft | 11 kts | 250° |
| 2026-04-14 16:47 | 50.04603 | 8.58274 | 368 ft | 18 kts | 250° |
| 2026-04-14 16:47 | 50.04553 | 8.58075 | 366 ft | 21 kts | 248° |
| 2026-04-14 16:47 | 50.04505 | 8.57860 | 366 ft | 21 kts | 249° |
| 2026-04-14 16:47 | 50.04453 | 8.57643 | 366 ft | 22 kts | 249° |
| 2026-04-14 16:48 | 50.04397 | 8.57410 | 364 ft | 24 kts | 249° |
| 2026-04-14 16:48 | 50.04339 | 8.57165 | 365 ft | 25 kts | 250° |
| 2026-04-14 16:48 | 50.04277 | 8.56906 | 362 ft | 26 kts | 249° |
| 2026-04-14 16:48 | 50.04212 | 8.56637 | 357 ft | 28 kts | 250° |
| 2026-04-14 16:49 | 50.04146 | 8.56356 | 356 ft | 24 kts | 250° |
| 2026-04-14 16:49 | 50.04086 | 8.56108 | 357 ft | 25 kts | 250° |
| 2026-04-14 16:49 | 50.04023 | 8.55849 | 355 ft | 26 kts | 249° |
| 2026-04-14 16:49 | 50.03959 | 8.55574 | 352 ft | 27 kts | 249° |
| 2026-04-14 16:50 | 50.03891 | 8.55298 | 356 ft | 28 kts | 249° |
| 2026-04-14 16:50 | 50.03825 | 8.55016 | 351 ft | 28 kts | 250° |
| 2026-04-14 16:50 | 50.03756 | 8.54736 | 354 ft | 18 kts | 234° |
| 2026-04-14 16:50 | 50.03691 | 8.54713 | 345 ft | 0 kts | 171° |
| 2026-04-14 16:51 | 50.03659 | 8.54727 | 350 ft | 16 kts | 160° |
| 2026-04-14 16:51 | 50.03583 | 8.54811 | 344 ft | 11 kts | 81° |
| 2026-04-14 16:51 | 50.03587 | 8.54825 | 344 ft | 0 kts | 66° |
| 2026-04-14 16:51 | 50.03590 | 8.54837 | 344 ft | 4 kts | 66° |
| 2026-04-14 16:52 | 50.03688 | 8.55245 | 347 ft | 82 kts | 70° |
| 2026-04-14 16:52 | 50.03971 | 8.56422 | 360 ft | 148 kts | 69° |
| 2026-04-14 16:52 | 50.04330 | 8.57947 | 933 ft | 150 kts | 70° |
| 2026-04-14 16:52 | 50.04680 | 8.59459 | 1644 ft | 149 kts | 70° |
| 2026-04-14 16:53 | 50.05044 | 8.61065 | 2155 ft | 168 kts | 69° |
| 2026-04-14 16:53 | 50.05457 | 8.62898 | 2614 ft | 190 kts | 69° |
| 2026-04-14 16:53 | 50.05923 | 8.64965 | 3039 ft | 213 kts | 69° |
| 2026-04-14 16:53 | 50.06429 | 8.67224 | 3723 ft | 226 kts | 69° |
| 2026-04-14 16:54 | 50.06945 | 8.69557 | 4706 ft | 229 kts | 70° |
| 2026-04-14 16:54 | 50.07174 | 8.72043 | 5605 ft | 240 kts | 91° |
| 2026-04-14 16:54 | 50.06913 | 8.74753 | 6181 ft | 264 kts | 98° |
| 2026-04-14 16:54 | 50.06575 | 8.77612 | 7057 ft | 273 kts | 99° |
| 2026-04-14 16:55 | 50.06224 | 8.80540 | 8026 ft | 278 kts | 99° |
| 2026-04-14 16:55 | 50.05872 | 8.83528 | 9001 ft | 283 kts | 97° |
| 2026-04-14 16:55 | 50.05788 | 8.86610 | 9921 ft | 287 kts | 87° |
| 2026-04-14 16:55 | 50.05840 | 8.89763 | 10623 ft | 302 kts | 88° |
| 2026-04-14 16:56 | 50.05903 | 8.93157 | 11067 ft | 323 kts | 88° |
| 2026-04-14 16:56 | 50.05969 | 8.96720 | 11808 ft | 333 kts | 88° |
| 2026-04-14 16:56 | 50.06031 | 9.00353 | 12617 ft | 339 kts | 89° |
| 2026-04-14 16:56 | 50.06092 | 9.04052 | 13448 ft | 344 kts | 89° |
| 2026-04-14 16:57 | 50.06149 | 9.07794 | 14268 ft | 348 kts | 89° |
| 2026-04-14 16:57 | 50.06204 | 9.11584 | 15067 ft | 352 kts | 89° |
| 2026-04-14 16:57 | 50.06260 | 9.15416 | 15837 ft | 356 kts | 89° |
| 2026-04-14 16:57 | 50.06318 | 9.19292 | 16575 ft | 360 kts | 89° |
| 2026-04-14 16:58 | 50.06377 | 9.23208 | 17309 ft | 364 kts | 89° |
| 2026-04-14 16:58 | 50.06434 | 9.27174 | 18033 ft | 368 kts | 89° |
| 2026-04-14 16:58 | 50.06486 | 9.31128 | 18731 ft | 372 kts | 89° |
| 2026-04-14 16:58 | 50.06538 | 9.35172 | 19416 ft | 375 kts | 89° |
| 2026-04-14 16:59 | 50.06589 | 9.39264 | 20085 ft | 379 kts | 89° |
| 2026-04-14 16:59 | 50.06641 | 9.43392 | 20742 ft | 383 kts | 89° |
| 2026-04-14 16:59 | 50.06691 | 9.47559 | 21382 ft | 387 kts | 89° |
| 2026-04-14 16:59 | 50.06740 | 9.51764 | 21995 ft | 391 kts | 89° |
| 2026-04-14 17:00 | 50.06789 | 9.56019 | 22600 ft | 395 kts | 89° |
| 2026-04-14 17:00 | 50.06836 | 9.60315 | 23197 ft | 398 kts | 89° |
| 2026-04-14 17:00 | 50.06882 | 9.64643 | 23778 ft | 402 kts | 89° |
| 2026-04-14 17:00 | 50.06928 | 9.69008 | 24349 ft | 405 kts | 89° |
| 2026-04-14 17:01 | 50.06974 | 9.73423 | 24899 ft | 408 kts | 89° |
| 2026-04-14 17:01 | 50.07016 | 9.77858 | 25435 ft | 411 kts | 89° |
| 2026-04-14 17:01 | 50.07054 | 9.82272 | 25931 ft | 415 kts | 90° |
| 2026-04-14 17:01 | 50.07091 | 9.86782 | 26426 ft | 417 kts | 90° |
| 2026-04-14 17:02 | 50.07125 | 9.91313 | 26920 ft | 421 kts | 90° |
| 2026-04-14 17:02 | 50.07156 | 9.95888 | 27402 ft | 423 kts | 90° |
| 2026-04-14 17:02 | 50.07187 | 10.00488 | 27845 ft | 426 kts | 90° |
| 2026-04-14 17:02 | 50.07219 | 10.05125 | 28295 ft | 429 kts | 90° |
| 2026-04-14 17:03 | 50.07251 | 10.09790 | 28744 ft | 432 kts | 90° |
| 2026-04-14 17:03 | 50.07284 | 10.14471 | 29183 ft | 434 kts | 90° |
| 2026-04-14 17:03 | 50.07314 | 10.19184 | 29589 ft | 437 kts | 90° |
| 2026-04-14 17:03 | 50.07339 | 10.23939 | 30000 ft | 440 kts | 90° |
| 2026-04-14 17:04 | 50.07363 | 10.28720 | 30407 ft | 443 kts | 90° |
| 2026-04-14 17:04 | 50.07385 | 10.33528 | 30799 ft | 445 kts | 90° |
| 2026-04-14 17:04 | 50.07408 | 10.38353 | 31158 ft | 448 kts | 90° |
| 2026-04-14 17:04 | 50.07431 | 10.43231 | 31512 ft | 451 kts | 90° |
| 2026-04-14 17:05 | 50.07453 | 10.48134 | 31859 ft | 454 kts | 90° |
| 2026-04-14 17:05 | 50.07474 | 10.52982 | 32320 ft | 453 kts | 90° |
| 2026-04-14 17:05 | 50.07495 | 10.57883 | 32822 ft | 451 kts | 90° |
| 2026-04-14 17:05 | 50.07510 | 10.62756 | 33297 ft | 450 kts | 90° |
| 2026-04-14 17:06 | 50.07517 | 10.67627 | 33750 ft | 449 kts | 90° |
| 2026-04-14 17:06 | 50.07522 | 10.72489 | 34212 ft | 448 kts | 90° |
| 2026-04-14 17:06 | 50.07527 | 10.77334 | 34645 ft | 447 kts | 90° |
| 2026-04-14 17:06 | 50.07531 | 10.82181 | 35042 ft | 447 kts | 90° |
| 2026-04-14 17:07 | 50.07534 | 10.87020 | 35416 ft | 447 kts | 90° |
| 2026-04-14 17:07 | 50.07535 | 10.91868 | 35754 ft | 448 kts | 90° |
| 2026-04-14 17:07 | 50.07532 | 10.96670 | 36072 ft | 449 kts | 90° |
| 2026-04-14 17:07 | 50.07529 | 11.01531 | 36392 ft | 449 kts | 90° |
| 2026-04-14 17:08 | 50.07522 | 11.06409 | 36700 ft | 449 kts | 90° |
| 2026-04-14 17:08 | 50.07511 | 11.11259 | 37066 ft | 447 kts | 91° |
| 2026-04-14 17:08 | 50.07496 | 11.16091 | 37181 ft | 444 kts | 91° |
| 2026-04-14 17:08 | 50.07480 | 11.20877 | 37195 ft | 440 kts | 91° |
| 2026-04-14 17:09 | 50.07450 | 11.30370 | 37192 ft | 437 kts | 91° |
| 2026-04-14 17:09 | 50.07415 | 11.39776 | 37192 ft | 436 kts | 91° |
| 2026-04-14 17:10 | 50.07375 | 11.49213 | 37193 ft | 436 kts | 91° |
| 2026-04-14 17:10 | 50.07320 | 11.58652 | 37193 ft | 436 kts | 91° |
| 2026-04-14 17:11 | 50.07257 | 11.68094 | 37194 ft | 436 kts | 91° |
| 2026-04-14 17:11 | 50.07190 | 11.77478 | 37197 ft | 436 kts | 91° |
| 2026-04-14 17:12 | 50.07120 | 11.86908 | 37196 ft | 435 kts | 91° |
| 2026-04-14 17:12 | 50.07041 | 11.96361 | 37191 ft | 435 kts | 91° |
| 2026-04-14 17:13 | 50.06952 | 12.05778 | 37186 ft | 435 kts | 92° |
| 2026-04-14 17:13 | 50.06856 | 12.15139 | 37185 ft | 435 kts | 92° |
| 2026-04-14 17:14 | 50.06740 | 12.24558 | 37185 ft | 435 kts | 92° |
| 2026-04-14 17:14 | 50.06615 | 12.33992 | 37186 ft | 435 kts | 92° |
| 2026-04-14 17:15 | 50.06490 | 12.43409 | 37184 ft | 435 kts | 91° |
| 2026-04-14 17:15 | 50.06493 | 12.52836 | 37179 ft | 435 kts | 90° |
| 2026-04-14 17:16 | 50.06553 | 12.62245 | 37179 ft | 435 kts | 90° |
| 2026-04-14 17:16 | 50.06587 | 12.71613 | 37173 ft | 435 kts | 91° |
| 2026-04-14 17:17 | 50.06577 | 12.81037 | 37181 ft | 435 kts | 91° |
| 2026-04-14 17:17 | 50.06553 | 12.90493 | 37183 ft | 435 kts | 91° |
| 2026-04-14 17:18 | 50.06545 | 12.99884 | 37175 ft | 436 kts | 91° |
| 2026-04-14 17:18 | 50.06523 | 13.09327 | 37184 ft | 436 kts | 91° |
| 2026-04-14 17:19 | 50.06490 | 13.18775 | 37185 ft | 436 kts | 91° |
| 2026-04-14 17:19 | 50.06450 | 13.28230 | 37186 ft | 436 kts | 92° |
| 2026-04-14 17:20 | 50.06401 | 13.37628 | 37184 ft | 436 kts | 92° |
| 2026-04-14 17:20 | 50.06348 | 13.47067 | 37185 ft | 436 kts | 92° |
| 2026-04-14 17:21 | 50.06282 | 13.56506 | 37184 ft | 436 kts | 92° |
| 2026-04-14 17:21 | 50.06214 | 13.65958 | 37180 ft | 436 kts | 92° |
| 2026-04-14 17:22 | 50.06143 | 13.75395 | 37181 ft | 436 kts | 92° |
| 2026-04-14 17:22 | 50.06059 | 13.84830 | 37175 ft | 436 kts | 92° |